Time;durP1;ratioP1;P1;durP2;ratioP2;P2;SDS_P1;SDS_P2;PMS_P1;PMS_P2;Temp;Humidity;BMP_temperature;BMP_pressure;BME280_temperature;BME280_humidity;BME280_pressure;Samples;Min_cycle;Max_cycle;Signal;HPM_P1;HPM_P2
2022/08/10 00:00:33;;;;;;;6.25;2.53;;;26.60;99.90;;;;;;4110714;28;20434;-67
2022/08/10 00:02:42;;;;;;;4.28;2.28;;;26.60;99.90;;;;;;4110765;28;20087;-67
2022/08/10 00:05:04;;;;;;;2.45;1.90;;;26.60;99.90;;;;;;4106637;28;20110;-66
2022/08/10 00:07:09;;;;;;;4.43;2.10;;;26.60;99.90;;;;;;4081045;29;20052;-67
2022/08/10 00:09:14;;;;;;;4.07;2.20;;;26.60;99.90;;;;;;4099193;28;20062;-67
2022/08/10 00:11:18;;;;;;;4.47;1.70;;;26.70;99.90;;;;;;4111550;28;20057;-67
2022/08/10 00:13:27;;;;;;;2.53;1.60;;;26.70;99.90;;;;;;4111911;28;20109;-67
2022/08/10 00:15:32;;;;;;;4.00;1.90;;;26.70;99.90;;;;;;4111081;28;20059;-66
2022/08/10 00:17:57;;;;;;;5.03;2.47;;;26.80;99.90;;;;;;4111364;28;20061;-66
2022/08/10 00:20:05;;;;;;;3.55;2.20;;;26.80;99.90;;;;;;4106032;28;20050;-66
2022/08/10 00:22:11;;;;;;;4.25;2.40;;;26.80;99.90;;;;;;4095682;29;20052;-67
2022/08/10 00:24:19;;;;;;;6.05;2.50;;;26.80;99.90;;;;;;4097240;28;20529;-66
2022/08/10 00:26:25;;;;;;;4.32;2.22;;;26.80;99.90;;;;;;4129271;28;20500;-67
2022/08/10 00:28:51;;;;;;;5.40;2.13;;;26.90;99.90;;;;;;4130397;28;20089;-67
2022/08/10 00:30:55;;;;;;;5.93;2.25;;;26.90;99.90;;;;;;4126217;28;20060;-67
2022/08/10 00:33:00;;;;;;;6.10;1.85;;;26.90;99.90;;;;;;4121726;28;20474;-66
2022/08/10 00:35:06;;;;;;;3.47;2.15;;;27.00;99.90;;;;;;4122369;28;20194;-67
2022/08/10 00:37:11;;;;;;;3.25;1.80;;;27.00;99.90;;;;;;4127300;28;20050;-68
2022/08/10 00:39:17;;;;;;;3.63;1.63;;;27.10;99.90;;;;;;4128098;28;20054;-67
2022/08/10 00:41:23;;;;;;;4.75;2.05;;;27.10;99.90;;;;;;4121453;28;20042;-68
2022/08/10 00:43:27;;;;;;;4.10;1.77;;;27.00;99.90;;;;;;4144121;28;20104;-67
2022/08/10 00:45:34;;;;;;;5.68;1.98;;;27.10;99.90;;;;;;4134223;28;20081;-67
2022/08/10 00:47:39;;;;;;;2.92;2.00;;;27.10;99.90;;;;;;4128263;28;20638;-67
2022/08/10 00:49:44;;;;;;;4.40;2.25;;;27.10;99.90;;;;;;4118929;28;20693;-67
2022/08/10 00:51:50;;;;;;;5.07;2.90;;;27.10;99.90;;;;;;4125957;28;20046;-68
2022/08/10 00:53:55;;;;;;;4.50;2.47;;;27.10;99.90;;;;;;4125935;28;20413;-68
2022/08/10 00:55:59;;;;;;;4.38;2.20;;;27.10;99.90;;;;;;4126492;28;20048;-70
2022/08/10 00:58:26;;;;;;;5.75;2.63;;;27.00;99.90;;;;;;4125524;28;20078;-67
2022/08/10 01:00:31;;;;;;;2.72;2.30;;;27.00;99.90;;;;;;4127002;28;20047;-68
2022/08/10 01:02:36;;;;;;;5.18;2.40;;;27.00;99.90;;;;;;4129084;28;20132;-69
2022/08/10 01:04:41;;;;;;;3.92;2.15;;;27.00;99.90;;;;;;4129217;28;20049;-68
2022/08/10 01:07:32;;;;;;;3.38;2.50;;;27.10;99.90;;;;;;4112893;28;20059;-66
2022/08/10 01:10:09;;;;;;;3.83;2.40;;;27.20;99.90;;;;;;4110902;28;20047;-67
2022/08/10 01:12:23;;;;;;;6.50;3.25;;;27.40;99.90;;;;;;4123677;28;20050;-66
2022/08/10 01:15:15;;;;;;;6.10;3.00;;;27.40;99.90;;;;;;4109169;28;20046;-66
2022/08/10 01:17:30;;;;;;;5.93;2.83;;;27.50;99.90;;;;;;4121763;28;20061;-68
2022/08/10 01:20:08;;;;;;;4.00;2.67;;;27.50;99.90;;;;;;4116238;28;20409;-67
2022/08/10 01:22:51;;;;;;;5.07;3.08;;;27.50;99.90;;;;;;4114109;28;20062;-67
2022/08/10 01:25:21;;;;;;;6.03;3.42;;;27.60;99.90;;;;;;4119328;28;20140;-67
2022/08/10 01:27:41;;;;;;;5.57;3.47;;;27.70;99.90;;;;;;4116776;28;20568;-67
2022/08/10 01:30:07;;;;;;;4.40;2.78;;;27.70;99.90;;;;;;4125330;28;20734;-67
2022/08/10 01:32:16;;;;;;;5.03;2.95;;;27.80;99.90;;;;;;4124807;28;20046;-67
2022/08/10 01:34:23;;;;;;;6.40;3.00;;;27.90;99.90;;;;;;4125536;28;20065;-68
2022/08/10 01:36:33;;;;;;;5.57;2.78;;;27.90;99.90;;;;;;4125340;28;20058;-67
2022/08/10 01:38:45;;;;;;;5.15;2.55;;;27.80;99.90;;;;;;4124204;28;20054;-68
2022/08/10 01:41:04;;;;;;;4.15;2.50;;;27.90;99.90;;;;;;4122959;28;20077;-67
2022/08/10 01:43:09;;;;;;;5.43;2.42;;;27.90;99.90;;;;;;4122571;28;20058;-67
2022/08/10 01:45:14;;;;;;;6.13;2.38;;;28.00;99.90;;;;;;4125421;28;20050;-67
2022/08/10 01:49:39;;;;;;;4.80;2.40;;;28.00;99.90;;;;;;4123949;28;20125;-67
2022/08/10 01:51:51;;;;;;;2.95;2.05;;;27.90;99.90;;;;;;4125172;28;20073;-67
2022/08/10 01:54:08;;;;;;;3.88;1.95;;;28.00;99.90;;;;;;4123677;28;20062;-67
2022/08/10 01:56:18;;;;;;;5.05;1.83;;;28.00;99.90;;;;;;4123581;28;20787;-67
2022/08/10 01:58:24;;;;;;;2.72;1.42;;;28.20;99.90;;;;;;4125668;28;20050;-67
2022/08/10 02:00:31;;;;;;;4.65;1.80;;;28.20;99.90;;;;;;4122715;28;20058;-67
2022/08/10 02:02:36;;;;;;;4.15;1.70;;;28.40;99.90;;;;;;4124853;28;20046;-68
2022/08/10 02:04:45;;;;;;;3.97;1.73;;;28.40;99.90;;;;;;4125305;28;20481;-69
2022/08/10 02:06:50;;;;;;;2.13;1.50;;;28.30;99.90;;;;;;4123981;28;20130;-67
2022/08/10 02:08:56;;;;;;;2.83;1.65;;;28.30;99.90;;;;;;4124896;28;20076;-67
2022/08/10 02:11:09;;;;;;;3.45;1.92;;;28.40;99.90;;;;;;4121281;28;20070;-67
2022/08/10 02:13:16;;;;;;;3.35;1.58;;;28.30;99.90;;;;;;4125349;28;20130;-67
2022/08/10 02:15:21;;;;;;;3.60;1.92;;;28.40;99.90;;;;;;4125135;28;20097;-66
2022/08/10 02:17:39;;;;;;;4.32;1.85;;;28.50;99.90;;;;;;4124986;28;20093;-66
2022/08/10 02:20:04;;;;;;;4.18;1.88;;;28.50;99.90;;;;;;4124185;28;20042;-66
2022/08/10 02:22:09;;;;;;;5.85;1.60;;;28.50;99.90;;;;;;4122515;28;20050;-67
2022/08/10 02:24:36;;;;;;;2.03;1.30;;;28.50;99.90;;;;;;4101123;28;20051;-67
2022/08/10 02:26:42;;;;;;;2.83;1.38;;;28.20;99.90;;;;;;4099343;28;20078;-67
2022/08/10 02:28:47;;;;;;;2.83;1.23;;;28.20;99.90;;;;;;4099056;28;20501;-66
2022/08/10 02:30:53;;;;;;;4.63;1.75;;;28.20;99.90;;;;;;4098593;28;20046;-67
2022/08/10 02:33:00;;;;;;;3.70;1.50;;;28.10;99.90;;;;;;4098614;28;20129;-66
2022/08/10 02:35:10;;;;;;;3.47;1.50;;;28.00;99.90;;;;;;4097344;28;20055;-67
2022/08/10 02:37:26;;;;;;;3.50;1.70;;;28.10;99.90;;;;;;4089502;28;20082;-67
2022/08/10 02:39:34;;;;;;;2.25;1.20;;;28.20;99.90;;;;;;4106956;28;20062;-67
2022/08/10 02:41:59;;;;;;;4.20;1.42;;;28.30;99.90;;;;;;4106973;28;20047;-67
2022/08/10 02:44:48;;;;;;;4.78;1.85;;;28.50;99.90;;;;;;4107235;28;20397;-67
2022/08/10 02:47:41;;;;;;;2.05;1.25;;;28.50;99.90;;;;;;4107069;28;20125;-67
2022/08/10 02:50:07;;;;;;;1.80;1.00;;;28.70;99.90;;;;;;4075815;29;20439;-67
2022/08/10 02:52:49;;;;;;;2.05;1.10;;;28.80;99.90;;;;;;4106830;28;20053;-68
2022/08/10 02:55:06;;;;;;;3.75;1.30;;;28.80;99.90;;;;;;4090993;29;20048;-67
2022/08/10 02:57:28;;;;;;;7.75;1.30;;;28.60;99.90;;;;;;4107078;28;20086;-67
2022/08/10 02:59:37;;;;;;;6.03;1.40;;;28.90;99.90;;;;;;4073592;29;20056;-68
2022/08/10 03:01:45;;;;;;;5.10;1.42;;;29.10;99.90;;;;;;4096564;28;20054;-67
2022/08/10 03:04:00;;;;;;;4.07;1.30;;;29.20;99.90;;;;;;4125288;28;20054;-67
2022/08/10 03:06:10;;;;;;;4.93;1.40;;;29.30;99.90;;;;;;4123226;28;20469;-67
2022/08/10 03:08:18;;;;;;;5.05;1.60;;;29.30;99.90;;;;;;4141971;28;20133;-67
2022/08/10 03:10:38;;;;;;;4.25;1.30;;;29.30;99.90;;;;;;4142467;28;20120;-67
2022/08/10 03:12:43;;;;;;;3.20;1.40;;;29.30;99.90;;;;;;4127780;28;20074;-67
2022/08/10 03:14:52;;;;;;;4.32;1.05;;;29.30;99.90;;;;;;4127337;28;20047;-67
2022/08/10 03:16:57;;;;;;;4.10;1.25;;;29.30;99.90;;;;;;4127463;28;20050;-67
2022/08/10 03:19:03;;;;;;;7.63;1.20;;;29.10;99.90;;;;;;4127383;28;20058;-66
2022/08/10 03:21:30;;;;;;;3.85;1.10;;;29.10;99.90;;;;;;4108151;28;20043;-67
2022/08/10 03:23:34;;;;;;;4.43;1.13;;;29.10;99.90;;;;;;4116620;28;20120;-67
2022/08/10 03:25:39;;;;;;;3.88;1.20;;;29.20;99.90;;;;;;4108935;28;20050;-67
2022/08/10 03:27:58;;;;;;;2.90;1.00;;;29.10;99.90;;;;;;4106655;28;20039;-67
2022/08/10 03:30:03;;;;;;;4.10;0.90;;;29.10;99.90;;;;;;4108434;28;20532;-67
2022/08/10 03:32:28;;;;;;;5.35;1.00;;;29.20;99.90;;;;;;4092082;28;20139;-67
2022/08/10 03:34:35;;;;;;;6.38;1.10;;;29.40;99.90;;;;;;4108965;28;20038;-66
2022/08/10 03:36:40;;;;;;;4.13;1.13;;;29.50;99.90;;;;;;4106863;28;20564;-67
2022/08/10 03:38:50;;;;;;;4.53;1.05;;;29.50;99.90;;;;;;4108504;28;20070;-66
2022/08/10 03:40:56;;;;;;;2.65;1.00;;;29.50;99.90;;;;;;4105871;28;20810;-68
2022/08/10 03:43:01;;;;;;;3.22;1.00;;;29.60;99.90;;;;;;4106842;28;20051;-67
2022/08/10 03:45:07;;;;;;;3.15;0.90;;;29.50;99.90;;;;;;4108348;28;20047;-67
2022/08/10 03:47:13;;;;;;;2.53;0.85;;;29.60;99.90;;;;;;4116172;28;20062;-68
2022/08/10 03:49:19;;;;;;;3.70;0.88;;;29.50;99.90;;;;;;4109068;28;20043;-67
2022/08/10 03:51:23;;;;;;;1.58;0.90;;;29.60;99.90;;;;;;4108807;28;20122;-67
2022/08/10 03:53:34;;;;;;;2.95;0.70;;;29.50;99.90;;;;;;4108353;28;20077;-68
2022/08/10 03:55:58;;;;;;;2.35;1.10;;;29.70;99.90;;;;;;4110043;28;20142;-67
2022/08/10 03:58:24;;;;;;;3.88;1.30;;;29.60;99.90;;;;;;4113059;28;20077;-68
2022/08/10 04:00:33;;;;;;;3.70;1.20;;;29.70;99.90;;;;;;4129650;28;20105;-67
2022/08/10 04:02:39;;;;;;;3.53;1.35;;;29.70;99.90;;;;;;4120545;28;20054;-67
2022/08/10 04:04:50;;;;;;;2.67;1.52;;;29.90;99.90;;;;;;4111269;28;20047;-67
2022/08/10 04:06:57;;;;;;;1.42;0.65;;;30.10;99.90;;;;;;4113100;28;20051;-68
2022/08/10 04:09:02;;;;;;;1.20;0.70;;;30.10;99.90;;;;;;4127177;28;20054;-67
2022/08/10 04:11:09;;;;;;;2.35;0.98;;;30.10;99.90;;;;;;4125433;28;20050;-67
2022/08/10 04:13:15;;;;;;;2.78;0.80;;;30.30;99.90;;;;;;4126675;28;20054;-67
2022/08/10 04:15:20;;;;;;;3.13;0.82;;;30.10;99.90;;;;;;4125219;28;20104;-67
2022/08/10 04:17:25;;;;;;;1.55;0.63;;;30.10;99.90;;;;;;4127078;28;20054;-67
2022/08/10 04:19:53;;;;;;;0.98;0.70;;;30.30;99.90;;;;;;4105723;28;20055;-67
2022/08/10 04:22:04;;;;;;;2.22;0.80;;;30.20;99.90;;;;;;4107783;28;20055;-67
2022/08/10 04:24:10;;;;;;;2.53;0.80;;;30.20;99.90;;;;;;4092526;28;20142;-67
2022/08/10 04:26:29;;;;;;;1.13;0.60;;;30.20;99.90;;;;;;4106753;28;20097;-67
2022/08/10 04:28:34;;;;;;;1.58;0.70;;;30.40;99.90;;;;;;4108383;28;20391;-68
2022/08/10 04:30:38;;;;;;;2.83;0.50;;;30.60;99.90;;;;;;4106876;28;20057;-68
2022/08/10 04:32:47;;;;;;;1.77;0.80;;;30.80;99.90;;;;;;4107304;28;20124;-68
2022/08/10 04:34:51;;;;;;;3.17;0.80;;;30.60;99.90;;;;;;4106872;28;20047;-67
2022/08/10 04:36:55;;;;;;;2.30;0.63;;;30.60;99.90;;;;;;4108261;28;20093;-67
2022/08/10 04:39:02;;;;;;;0.88;0.47;;;30.70;99.90;;;;;;4092713;28;20058;-67
2022/08/10 04:41:07;;;;;;;1.23;0.50;;;30.60;99.90;;;;;;4101171;28;20635;-67
2022/08/10 04:43:12;;;;;;;1.38;0.65;;;30.30;99.90;;;;;;4107702;28;20038;-68
2022/08/10 04:45:21;;;;;;;1.77;0.70;;;30.40;99.90;;;;;;4086036;29;20098;-67
2022/08/10 04:47:45;;;;;;;4.20;0.88;;;30.30;99.90;;;;;;4108337;28;20039;-68
2022/08/10 04:50:07;;;;;;;0.75;0.65;;;30.60;99.90;;;;;;4106026;28;20086;-68
2022/08/10 04:52:14;;;;;;;2.25;0.90;;;30.80;99.90;;;;;;4107344;28;20066;-67
2022/08/10 04:54:19;;;;;;;1.55;0.68;;;30.80;99.90;;;;;;4107851;28;20097;-68
2022/08/10 04:56:24;;;;;;;6.60;0.80;;;30.70;99.90;;;;;;4106103;28;20047;-68
2022/08/10 04:58:35;;;;;;;2.20;0.85;;;30.80;99.90;;;;;;4125877;28;20074;-68
2022/08/10 05:00:39;;;;;;;1.42;0.80;;;30.90;99.90;;;;;;4124889;28;20046;-67
2022/08/10 05:02:45;;;;;;;2.22;0.70;;;30.80;99.90;;;;;;4126149;28;20089;-67
2022/08/10 05:04:51;;;;;;;3.47;0.73;;;30.90;99.90;;;;;;4124646;28;20042;-67
2022/08/10 05:06:55;;;;;;;1.63;0.75;;;30.90;99.90;;;;;;4110026;28;20054;-67
2022/08/10 05:09:00;;;;;;;1.85;0.80;;;30.90;99.90;;;;;;4125371;28;20668;-67
2022/08/10 05:11:06;;;;;;;2.38;0.73;;;30.90;99.90;;;;;;4124101;28;20053;-67
2022/08/10 05:13:10;;;;;;;1.95;0.60;;;30.70;99.90;;;;;;4126222;28;20092;-67
2022/08/10 05:15:17;;;;;;;1.30;0.57;;;30.80;99.90;;;;;;4123983;28;20145;-67
2022/08/10 05:17:26;;;;;;;1.77;0.45;;;30.80;99.90;;;;;;4126329;28;20108;-67
2022/08/10 05:19:30;;;;;;;2.00;0.60;;;31.00;99.90;;;;;;4125898;28;20517;-67
2022/08/10 05:21:55;;;;;;;2.00;0.32;;;31.00;99.90;;;;;;4109736;28;20042;-68
2022/08/10 05:24:07;;;;;;;1.92;0.47;;;31.10;99.90;;;;;;4125472;28;20054;-67
2022/08/10 05:26:12;;;;;;;3.13;0.50;;;31.20;99.90;;;;;;4123283;28;20445;-66
2022/08/10 05:28:16;;;;;;;1.13;0.50;;;31.30;99.90;;;;;;4126382;28;20065;-68
2022/08/10 05:30:26;;;;;;;0.90;0.38;;;31.30;99.90;;;;;;4124057;28;20514;-67
2022/08/10 05:32:33;;;;;;;0.63;0.45;;;31.30;99.60;;;;;;4126021;28;20043;-67
2022/08/10 05:34:58;;;;;;;1.38;0.55;;;31.30;99.90;;;;;;4125594;28;20097;-67
2022/08/10 05:37:06;;;;;;;1.52;0.47;;;31.20;99.90;;;;;;4124525;28;20069;-67
2022/08/10 05:39:31;;;;;;;6.90;1.83;;;31.10;99.70;;;;;;4126142;28;20061;-67
2022/08/10 05:41:35;;;;;;;1.75;0.88;;;31.00;99.90;;;;;;4124417;28;20053;-67
2022/08/10 05:43:50;;;;;;;2.92;0.55;;;31.00;99.90;;;;;;4125931;28;20046;-68
2022/08/10 05:45:54;;;;;;;0.70;0.30;;;31.20;99.90;;;;;;4124122;28;20088;-68
2022/08/10 05:48:20;;;;;;;2.33;0.38;;;31.50;99.70;;;;;;4125899;28;20081;-66
2022/08/10 05:50:48;;;;;;;0.88;0.35;;;31.60;99.60;;;;;;4089680;28;20055;-68
2022/08/10 05:52:53;;;;;;;2.85;0.55;;;31.60;99.30;;;;;;4091034;29;20514;-67
2022/08/10 05:54:57;;;;;;;2.05;0.40;;;31.70;99.20;;;;;;4091488;28;20051;-68
2022/08/10 05:57:05;;;;;;;0.85;0.50;;;31.60;99.00;;;;;;4051385;29;20479;-68
2022/08/10 05:59:13;;;;;;;1.58;0.60;;;31.60;99.20;;;;;;4074448;29;20061;-68
2022/08/10 06:01:40;;;;;;;1.10;0.75;;;31.70;99.20;;;;;;4088198;28;20051;-66
2022/08/10 06:04:06;;;;;;;1.17;0.47;;;31.50;99.10;;;;;;4069546;29;20421;-67
2022/08/10 06:06:10;;;;;;;1.33;0.47;;;31.50;99.60;;;;;;4084190;28;20421;-66
2022/08/10 06:08:23;;;;;;;0.52;0.30;;;31.60;98.90;;;;;;4082187;29;20043;-67
2022/08/10 06:10:31;;;;;;;1.00;0.45;;;31.40;97.90;;;;;;4047801;29;20084;-67
2022/08/10 06:12:39;;;;;;;0.63;0.43;;;31.50;98.80;;;;;;4092059;28;20047;-68
2022/08/10 06:15:02;;;;;;;0.85;0.40;;;31.50;98.70;;;;;;4089248;28;20204;-67
2022/08/10 06:17:23;;;;;;;1.52;0.40;;;31.40;98.60;;;;;;4084022;28;20043;-68
2022/08/10 06:19:28;;;;;;;0.88;0.40;;;31.50;99.30;;;;;;4092499;28;20527;-68
2022/08/10 06:21:33;;;;;;;2.00;0.40;;;31.60;98.70;;;;;;4094464;28;20050;-69
2022/08/10 06:23:41;;;;;;;1.05;0.30;;;31.40;98.80;;;;;;4125494;28;20050;-68
2022/08/10 06:25:45;;;;;;;1.48;0.35;;;31.50;98.80;;;;;;4123751;28;20568;-69
2022/08/10 06:28:13;;;;;;;1.00;0.40;;;31.40;98.80;;;;;;4125596;28;20130;-70
2022/08/10 06:30:21;;;;;;;0.73;0.40;;;31.40;98.80;;;;;;4155397;28;20049;-68
2022/08/10 06:32:27;;;;;;;1.85;0.40;;;31.50;98.80;;;;;;4125530;28;20046;-69
2022/08/10 06:34:34;;;;;;;1.25;0.38;;;31.50;98.50;;;;;;4125423;28;20038;-69
2022/08/10 06:36:43;;;;;;;1.77;0.40;;;31.50;98.30;;;;;;4121861;28;20544;-68
2022/08/10 06:38:47;;;;;;;1.55;0.32;;;31.60;98.20;;;;;;4125912;28;20133;-69
2022/08/10 06:40:54;;;;;;;4.18;0.70;;;31.80;98.40;;;;;;4123524;28;20110;-66
2022/08/10 06:43:04;;;;;;;0.85;0.32;;;31.60;98.10;;;;;;4113630;28;20070;-66
2022/08/10 06:45:17;;;;;;;1.50;0.40;;;31.50;97.60;;;;;;4128244;28;20061;-67
2022/08/10 06:47:36;;;;;;;2.38;0.47;;;31.50;97.80;;;;;;4128409;28;20047;-68
2022/08/10 06:49:45;;;;;;;0.57;0.40;;;31.50;97.80;;;;;;4128576;28;20112;-69
2022/08/10 06:51:55;;;;;;;2.75;0.43;;;31.50;98.00;;;;;;4126568;28;20047;-68
2022/08/10 06:54:08;;;;;;;0.88;0.32;;;31.60;97.30;;;;;;4127039;28;20050;-68
2022/08/10 06:56:18;;;;;;;0.88;0.40;;;31.70;97.70;;;;;;4158015;28;20091;-68
2022/08/10 06:58:56;;;;;;;0.73;0.35;;;31.70;97.40;;;;;;4127573;28;20169;-69
2022/08/10 07:01:04;;;;;;;1.17;0.50;;;31.70;97.00;;;;;;4156780;28;20144;-68
2022/08/10 07:03:10;;;;;;;0.85;0.50;;;31.80;97.60;;;;;;4127956;28;20509;-69
2022/08/10 07:05:18;;;;;;;0.90;0.30;;;31.90;97.40;;;;;;4128082;28;20655;-68
2022/08/10 07:07:25;;;;;;;2.53;0.60;;;31.70;97.10;;;;;;4112252;28;20055;-68
2022/08/10 07:09:34;;;;;;;1.30;0.40;;;31.70;97.80;;;;;;4124815;28;20046;-68
2022/08/10 07:11:39;;;;;;;1.90;0.40;;;31.90;97.60;;;;;;4126139;28;20841;-69
2022/08/10 07:13:44;;;;;;;0.82;0.40;;;32.10;98.00;;;;;;4127785;28;20714;-68
2022/08/10 07:16:11;;;;;;;2.95;0.40;;;32.20;98.00;;;;;;4078388;28;20186;-68
2022/08/10 07:18:17;;;;;;;1.13;0.50;;;32.20;97.40;;;;;;4092612;28;20050;-69
2022/08/10 07:20:22;;;;;;;1.52;0.47;;;32.20;97.00;;;;;;4114200;28;20058;-68
2022/08/10 07:22:30;;;;;;;2.30;0.70;;;31.90;97.00;;;;;;4115973;28;20579;-68
2022/08/10 07:24:56;;;;;;;0.57;0.40;;;31.60;97.50;;;;;;4124980;28;20053;-67
2022/08/10 07:27:00;;;;;;;4.80;0.57;;;31.50;97.70;;;;;;4119210;28;20082;-66
2022/08/10 07:29:05;;;;;;;3.03;0.63;;;31.60;98.00;;;;;;4124771;28;20061;-68
2022/08/10 07:31:30;;;;;;;0.93;0.40;;;31.40;98.40;;;;;;4113863;28;20051;-68
2022/08/10 07:33:55;;;;;;;1.35;0.50;;;31.50;98.60;;;;;;4108720;28;20054;-68
2022/08/10 07:36:01;;;;;;;1.63;0.40;;;31.70;98.40;;;;;;4113934;28;20082;-68
2022/08/10 07:38:06;;;;;;;0.60;0.50;;;31.90;98.20;;;;;;4124367;28;20054;-68
2022/08/10 07:40:10;;;;;;;0.82;0.40;;;32.10;97.90;;;;;;4107829;28;20058;-68
2022/08/10 07:42:22;;;;;;;0.80;0.40;;;32.00;98.20;;;;;;4122134;28;20472;-67
2022/08/10 07:44:26;;;;;;;1.83;0.40;;;32.20;98.40;;;;;;4109017;28;20065;-68
2022/08/10 07:46:32;;;;;;;1.52;0.60;;;32.30;97.70;;;;;;4105802;28;20055;-68
2022/08/10 07:48:45;;;;;;;2.20;0.80;;;32.20;98.30;;;;;;4122929;28;20049;-68
2022/08/10 07:50:49;;;;;;;2.38;0.45;;;32.00;97.50;;;;;;4123291;28;20070;-69
2022/08/10 07:52:57;;;;;;;0.95;0.50;;;32.10;98.10;;;;;;4149204;28;20049;-68
2022/08/10 07:55:04;;;;;;;1.73;0.60;;;32.10;98.40;;;;;;4121614;28;20393;-68
2022/08/10 07:57:22;;;;;;;1.15;0.50;;;32.20;98.20;;;;;;4121666;28;20077;-68
2022/08/10 07:59:39;;;;;;;2.38;0.40;;;32.20;98.00;;;;;;4126903;28;20599;-68
2022/08/10 08:01:49;;;;;;;2.30;0.55;;;32.10;97.50;;;;;;4124308;28;20745;-67
2022/08/10 08:03:53;;;;;;;2.90;0.50;;;32.20;98.20;;;;;;4126485;28;20512;-67
2022/08/10 08:06:14;;;;;;;1.05;0.40;;;32.30;98.10;;;;;;4124430;28;20807;-67
2022/08/10 08:08:21;;;;;;;0.95;0.50;;;32.50;97.70;;;;;;4126604;28;20049;-68
2022/08/10 08:10:27;;;;;;;4.53;0.50;;;32.20;97.90;;;;;;4124941;28;20046;-69
2022/08/10 08:12:31;;;;;;;1.23;0.50;;;32.30;97.80;;;;;;4124250;28;20097;-69
2022/08/10 08:14:43;;;;;;;3.45;0.60;;;32.40;97.80;;;;;;4091285;29;20050;-67
2022/08/10 08:16:49;;;;;;;0.90;0.45;;;32.50;97.50;;;;;;4127126;28;20539;-67
2022/08/10 08:18:54;;;;;;;2.95;0.77;;;32.30;97.80;;;;;;4128798;28;20046;-67
2022/08/10 08:21:22;;;;;;;1.10;0.50;;;32.30;97.40;;;;;;4105940;28;20058;-68
2022/08/10 08:23:47;;;;;;;2.15;0.50;;;32.10;97.40;;;;;;4097827;28;20518;-67
2022/08/10 08:26:11;;;;;;;0.98;0.50;;;32.20;97.50;;;;;;4091694;29;20058;-67
2022/08/10 08:28:20;;;;;;;1.83;0.50;;;32.40;97.60;;;;;;4106940;28;20050;-67
2022/08/10 08:30:25;;;;;;;0.98;0.35;;;32.50;97.20;;;;;;4106781;28;20042;-67
2022/08/10 08:32:31;;;;;;;0.47;0.40;;;32.60;97.10;;;;;;4107180;28;20463;-65
2022/08/10 08:34:40;;;;;;;0.77;0.40;;;32.60;96.70;;;;;;4107630;28;20888;-67
2022/08/10 08:36:45;;;;;;;1.45;0.70;;;32.70;97.00;;;;;;4106930;28;20222;-68
2022/08/10 08:38:50;;;;;;;0.57;0.35;;;32.80;96.80;;;;;;4107204;28;20097;-67
2022/08/10 08:41:18;;;;;;;1.95;0.50;;;32.80;96.60;;;;;;4091501;29;20071;-67
2022/08/10 08:43:53;;;;;;;1.02;0.60;;;32.80;96.60;;;;;;4107187;28;20089;-67
2022/08/10 08:46:27;;;;;;;2.83;0.60;;;32.80;96.40;;;;;;4105104;28;20569;-67
2022/08/10 08:48:57;;;;;;;1.90;0.60;;;32.70;96.10;;;;;;4106837;28;20109;-66
2022/08/10 08:51:27;;;;;;;3.05;0.70;;;32.60;96.70;;;;;;4105143;28;20051;-66
2022/08/10 08:54:11;;;;;;;1.77;0.70;;;32.70;96.00;;;;;;4107267;28;20927;-67
2022/08/10 08:56:37;;;;;;;1.05;0.73;;;32.50;95.90;;;;;;4104798;28;20572;-67
2022/08/10 08:59:02;;;;;;;4.20;0.90;;;32.40;96.10;;;;;;4111592;28;20050;-66
2022/08/10 09:01:22;;;;;;;1.40;0.60;;;32.50;96.40;;;;;;4123481;28;20074;-67
2022/08/10 09:04:19;;;;;;;1.85;0.60;;;32.50;96.00;;;;;;4125302;28;20054;-66
2022/08/10 09:06:49;;;;;;;3.58;0.40;;;32.40;95.70;;;;;;4123286;28;20786;-66
2022/08/10 09:09:28;;;;;;;1.02;0.50;;;32.30;95.60;;;;;;4125405;28;20105;-66
2022/08/10 09:12:05;;;;;;;1.90;0.73;;;32.40;95.50;;;;;;4112947;28;20053;-67
2022/08/10 09:14:29;;;;;;;1.80;0.60;;;32.50;95.20;;;;;;4117704;28;20133;-66
2022/08/10 09:16:50;;;;;;;1.05;0.50;;;32.50;95.40;;;;;;4119847;28;20058;-67
2022/08/10 09:19:09;;;;;;;0.73;0.40;;;32.40;94.80;;;;;;4111022;28;20070;-66
2022/08/10 09:21:46;;;;;;;2.42;0.50;;;32.40;94.90;;;;;;4076385;28;20051;-67
2022/08/10 09:24:15;;;;;;;0.38;0.25;;;32.40;95.30;;;;;;4074896;29;20063;-67
2022/08/10 09:26:43;;;;;;;1.23;0.30;;;32.50;95.20;;;;;;4087119;28;20061;-67
2022/08/10 09:28:51;;;;;;;0.30;0.30;;;32.60;95.10;;;;;;4075257;29;20040;-68
2022/08/10 09:31:16;;;;;;;2.08;0.60;;;32.70;95.10;;;;;;4085563;28;20047;-66
2022/08/10 09:33:57;;;;;;;0.85;0.40;;;32.70;95.20;;;;;;4074989;29;20051;-67
2022/08/10 09:36:53;;;;;;;0.57;0.40;;;32.60;94.50;;;;;;4088225;28;20071;-68
2022/08/10 09:39:22;;;;;;;1.38;0.60;;;32.40;94.80;;;;;;4090815;29;20059;-67
2022/08/10 09:42:11;;;;;;;1.13;0.47;;;32.40;95.30;;;;;;4081465;28;20055;-67
2022/08/10 09:44:46;;;;;;;0.88;0.40;;;32.30;95.30;;;;;;4090838;29;20514;-68
2022/08/10 09:47:39;;;;;;;2.65;0.63;;;32.30;95.50;;;;;;4081819;28;20051;-67
2022/08/10 09:50:27;;;;;;;1.33;0.60;;;32.40;95.70;;;;;;4090276;29;20043;-67
2022/08/10 09:53:21;;;;;;;6.85;1.60;;;32.60;95.90;;;;;;4088420;28;20170;-68
2022/08/10 09:56:06;;;;;;;2.95;0.90;;;32.60;96.10;;;;;;4090597;28;20228;-67
2022/08/10 09:58:47;;;;;;;3.80;0.88;;;32.60;96.40;;;;;;4075066;28;20534;-67
2022/08/10 10:01:12;;;;;;;2.55;0.65;;;32.50;96.30;;;;;;4116085;28;20093;-66
2022/08/10 10:04:01;;;;;;;3.05;0.65;;;32.60;96.40;;;;;;4108904;28;20145;-69
2022/08/10 10:06:32;;;;;;;2.45;0.80;;;32.50;96.70;;;;;;4116490;28;20100;-68
2022/08/10 10:09:06;;;;;;;2.42;0.95;;;32.50;97.60;;;;;;4124767;28;20137;-67
2022/08/10 10:11:37;;;;;;;1.77;0.70;;;32.50;98.00;;;;;;4122769;28;20050;-67
2022/08/10 10:14:21;;;;;;;1.77;0.70;;;32.50;98.60;;;;;;4124308;28;20054;-67
2022/08/10 10:17:00;;;;;;;3.17;0.80;;;32.40;98.90;;;;;;4128855;28;20054;-68
2022/08/10 10:19:34;;;;;;;2.08;1.00;;;32.40;99.10;;;;;;4138072;28;20081;-68
2022/08/10 10:22:07;;;;;;;3.90;0.80;;;32.40;99.30;;;;;;4139547;28;20088;-69
2022/08/10 10:24:38;;;;;;;3.25;1.30;;;32.30;99.70;;;;;;4127301;28;20070;-68
2022/08/10 10:26:58;;;;;;;2.70;1.30;;;32.30;99.90;;;;;;4126946;28;20061;-68
2022/08/10 10:29:20;;;;;;;3.08;1.50;;;32.30;99.90;;;;;;4127477;28;20147;-67
2022/08/10 10:32:08;;;;;;;4.05;1.45;;;32.10;99.90;;;;;;4134447;28;20066;-68
2022/08/10 10:34:29;;;;;;;3.67;1.20;;;32.00;99.90;;;;;;4126978;28;20051;-67
2022/08/10 10:36:34;;;;;;;2.88;1.38;;;32.00;99.90;;;;;;4125038;28;20613;-67
2022/08/10 10:38:39;;;;;;;3.33;1.30;;;32.00;99.90;;;;;;4140488;28;20046;-68
2022/08/10 10:41:10;;;;;;;3.42;1.60;;;32.00;99.90;;;;;;4171898;28;20044;-67
2022/08/10 10:43:46;;;;;;;2.45;0.90;;;31.90;99.90;;;;;;4152268;28;20077;-68
2022/08/10 10:46:11;;;;;;;3.67;1.10;;;31.80;99.90;;;;;;4131148;28;20495;-68
2022/08/10 10:48:32;;;;;;;2.28;1.13;;;31.80;99.90;;;;;;4134918;28;20489;-69
2022/08/10 10:51:07;;;;;;;3.72;1.10;;;31.90;99.90;;;;;;4142085;28;20049;-68
2022/08/10 10:53:27;;;;;;;4.25;0.90;;;31.80;99.90;;;;;;4133461;28;20112;-68
2022/08/10 10:55:56;;;;;;;1.88;0.90;;;31.80;99.80;;;;;;4129639;28;20507;-69
2022/08/10 10:58:38;;;;;;;3.33;1.10;;;31.80;99.90;;;;;;4143158;28;20724;-67
2022/08/10 11:01:15;;;;;;;1.52;1.20;;;31.70;99.90;;;;;;4127478;28;20046;-67
2022/08/10 11:03:59;;;;;;;6.40;1.30;;;31.50;99.90;;;;;;4128200;28;20050;-67
2022/08/10 11:06:31;;;;;;;5.68;1.20;;;31.40;99.90;;;;;;4126171;28;20057;-68
2022/08/10 11:08:46;;;;;;;3.28;1.50;;;31.30;99.90;;;;;;4124746;28;20045;-68
2022/08/10 11:11:15;;;;;;;;;;;31.30;99.90;;;;;;4126061;28;20049;-68
2022/08/10 11:14:04;;;;;;;3.58;1.35;;;31.30;99.90;;;;;;4124111;28;19987;-68
2022/08/10 11:17:00;;;;;;;2.20;1.00;;;31.10;99.90;;;;;;4122319;28;20046;-66
2022/08/10 11:19:40;;;;;;;2.60;0.80;;;31.00;99.90;;;;;;4125522;28;20050;-67
2022/08/10 11:22:43;;;;;;;2.05;0.73;;;31.00;99.40;;;;;;4123889;28;20417;-68
2022/08/10 11:25:20;;;;;;;3.78;0.77;;;30.90;99.30;;;;;;4130306;28;20049;-68
2022/08/10 11:27:57;;;;;;;1.65;0.75;;;30.90;99.20;;;;;;4135239;28;20129;-67
2022/08/10 11:30:10;;;;;;;4.32;1.40;;;30.90;99.10;;;;;;4136536;28;20055;-68
2022/08/10 11:32:32;;;;;;;1.80;0.70;;;30.80;99.30;;;;;;4130451;28;20100;-68
2022/08/10 11:34:47;;;;;;;1.60;0.80;;;30.80;99.20;;;;;;4136089;28;20619;-68
2022/08/10 11:37:45;;;;;;;3.97;1.55;;;30.60;99.70;;;;;;4106630;28;20531;-68
2022/08/10 11:40:42;;;;;;;4.47;1.52;;;30.60;99.90;;;;;;4117205;28;20046;-68
2022/08/10 11:43:09;;;;;;;6.60;1.73;;;30.60;99.90;;;;;;4093571;28;20798;-69
2022/08/10 11:45:21;;;;;;;4.20;1.90;;;30.60;99.90;;;;;;4093800;28;20082;-68
2022/08/10 11:47:44;;;;;;;10.43;2.47;;;30.50;99.90;;;;;;4094997;28;20047;-70
2022/08/10 11:50:08;;;;;;;8.93;2.20;;;30.40;99.90;;;;;;4091920;28;20066;-68
2022/08/10 11:52:16;;;;;;;2.22;1.17;;;30.40;99.90;;;;;;4092648;28;20047;-68
2022/08/10 11:54:52;;;;;;;3.63;0.75;;;30.40;99.90;;;;;;4092299;28;20040;-68